createdAt,value
2022-11-14T00:03:00.944Z,6.97
2022-11-14T00:06:07.694Z,6.91
2022-11-14T00:09:13.003Z,6.90
2022-11-14T00:12:20.105Z,7.02
2022-11-14T00:15:26.837Z,7.03
2022-11-14T00:18:32.430Z,6.99
2022-11-14T00:21:38.941Z,6.95
2022-11-14T00:24:45.038Z,7.09
2022-11-14T00:27:51.552Z,7.15
2022-11-14T00:30:57.209Z,7.06
2022-11-14T00:34:02.860Z,7.06
2022-11-14T00:37:08.382Z,7.01
2022-11-14T00:40:14.861Z,7.03
2022-11-14T00:43:21.766Z,7.05
2022-11-14T00:46:27.403Z,7.02
2022-11-14T00:49:33.220Z,7.05
2022-11-14T00:52:39.895Z,7.07
2022-11-14T00:55:45.241Z,7.17
2022-11-14T00:58:52.144Z,7.12
2022-11-14T01:01:58.152Z,7.16
2022-11-14T01:05:03.877Z,7.12
2022-11-14T01:08:09.244Z,7.07
2022-11-14T01:11:18.456Z,7.16
2022-11-14T01:14:24.918Z,7.07
2022-11-14T01:17:30.571Z,7.09
2022-11-14T01:20:36.253Z,7.11
2022-11-14T01:23:41.710Z,7.05
2022-11-14T01:26:47.512Z,7.04
2022-11-14T01:29:54.249Z,7.04
2022-11-14T01:33:00.018Z,7.03
2022-11-14T01:36:06.237Z,7.03
2022-11-14T01:39:11.580Z,7.01
2022-11-14T01:42:17.784Z,6.99
2022-11-14T01:45:54.306Z,6.93
2022-11-14T01:49:04.622Z,6.85
2022-11-14T01:52:15.023Z,6.80
2022-11-14T01:55:20.873Z,6.75
2022-11-14T01:58:27.390Z,6.61
2022-11-14T02:01:37.143Z,6.56
2022-11-14T02:04:48.275Z,6.66
2022-11-14T02:07:53.978Z,6.64
2022-11-14T02:10:59.345Z,6.73
2022-11-14T02:14:05.520Z,6.72
2022-11-14T02:17:30.096Z,6.72
2022-11-14T02:20:43.360Z,6.80
2022-11-14T02:23:48.864Z,6.84
2022-11-14T02:26:54.757Z,6.83
2022-11-14T02:30:06.404Z,6.80
2022-11-14T02:33:12.075Z,6.95
2022-11-14T02:36:19.061Z,6.92
2022-11-14T02:39:25.316Z,6.93
2022-11-14T02:42:31.016Z,6.90
2022-11-14T02:45:36.688Z,6.83
2022-11-14T02:48:42.424Z,6.80
2022-11-14T02:51:49.287Z,6.77
2022-11-14T02:54:54.993Z,6.84
2022-11-14T02:58:00.690Z,6.89
2022-11-14T03:01:20.236Z,6.83
2022-11-14T03:04:26.472Z,6.90
2022-11-14T03:07:34.019Z,6.83
2022-11-14T03:10:39.583Z,6.76
2022-11-14T03:13:45.144Z,6.68
2022-11-14T03:16:50.910Z,6.62
2022-11-14T03:19:56.456Z,6.65
2022-11-14T03:23:03.573Z,6.67
2022-11-14T03:26:10.350Z,6.77
2022-11-14T03:29:15.916Z,6.68
2022-11-14T03:32:20.934Z,6.63
2022-11-14T03:35:26.386Z,6.61
2022-11-14T03:38:34.571Z,6.63
2022-11-14T03:41:40.342Z,6.60
2022-11-14T03:44:46.004Z,6.72
2022-11-14T03:47:51.750Z,6.70
2022-11-14T03:50:57.931Z,6.70
2022-11-14T03:54:11.448Z,6.78
2022-11-14T03:57:17.550Z,6.74
2022-11-14T04:00:28.067Z,6.78
2022-11-14T04:03:36.970Z,6.73
2022-11-14T04:06:42.672Z,6.73
2022-11-14T04:09:49.981Z,6.70
2022-11-14T04:12:56.972Z,6.67
2022-11-14T04:16:02.445Z,6.57
2022-11-14T04:19:08.183Z,6.61
2022-11-14T04:22:14.187Z,6.57
2022-11-14T04:25:21.220Z,6.63
2022-11-14T04:28:26.921Z,6.66
2022-11-14T04:31:32.284Z,6.64
2022-11-14T04:34:38.045Z,6.60
2022-11-14T04:37:43.968Z,6.56
2022-11-14T04:40:51.934Z,6.60
2022-11-14T04:43:57.372Z,6.51
2022-11-14T04:47:02.283Z,6.50
2022-11-14T04:50:08.672Z,6.52
2022-11-14T04:53:14.235Z,6.50
2022-11-14T04:56:23.333Z,6.29
2022-11-14T04:59:29.119Z,6.39
2022-11-14T05:02:34.821Z,6.43
2022-11-14T05:05:42.072Z,6.51
2022-11-14T05:08:48.617Z,6.44
2022-11-14T05:11:55.367Z,6.40
2022-11-14T05:15:01.386Z,6.30
2022-11-14T05:18:06.876Z,6.35
2022-11-14T05:21:14.987Z,6.30
2022-11-14T05:24:20.486Z,6.39
2022-11-14T05:27:26.961Z,6.34
2022-11-14T05:30:32.502Z,6.34
2022-11-14T05:33:38.334Z,6.24
2022-11-14T05:36:43.967Z,6.22
2022-11-14T05:39:49.678Z,6.16
2022-11-14T05:42:57.616Z,6.25
2022-11-14T05:46:04.336Z,6.18
2022-11-14T05:49:09.585Z,6.25
2022-11-14T05:52:15.392Z,6.21
2022-11-14T05:55:24.841Z,6.33
2022-11-14T05:58:32.301Z,6.15
2022-11-14T06:01:37.838Z,6.27
2022-11-14T06:04:43.488Z,6.22
2022-11-14T06:07:49.235Z,6.27
2022-11-14T06:10:54.589Z,6.25
2022-11-14T06:14:06.893Z,6.17
2022-11-14T06:17:14.844Z,6.19
2022-11-14T06:20:21.247Z,5.71
2022-11-14T06:23:27.265Z,6.29
2022-11-14T06:26:34.156Z,6.24
2022-11-14T06:29:41.191Z,6.27
2022-11-14T06:32:46.457Z,6.27
2022-11-14T06:35:52.357Z,6.22
2022-11-14T06:38:58.480Z,6.18
2022-11-14T06:42:04.251Z,6.16
2022-11-14T06:45:12.233Z,6.19
2022-11-14T06:48:17.689Z,6.21
2022-11-14T06:51:22.918Z,6.09
2022-11-14T06:54:28.746Z,6.13
2022-11-14T06:57:34.377Z,6.17
2022-11-14T07:00:41.177Z,6.24
2022-11-14T07:03:46.866Z,6.32
2022-11-14T07:06:52.710Z,6.29
2022-11-14T07:09:59.276Z,6.27
2022-11-14T07:13:04.755Z,6.19
2022-11-14T07:16:11.737Z,6.30
2022-11-14T07:19:17.238Z,6.36
2022-11-14T07:22:22.887Z,6.34
2022-11-14T07:25:28.515Z,6.40
2022-11-14T07:28:35.326Z,6.43
2022-11-14T07:31:43.087Z,6.46
2022-11-14T07:34:48.348Z,6.53
2022-11-14T07:37:53.736Z,6.47
2022-11-14T07:41:03.749Z,6.50
2022-11-14T07:44:09.222Z,6.43
2022-11-14T07:47:16.319Z,6.47
2022-11-14T07:50:22.282Z,6.37
2022-11-14T07:53:28.692Z,6.24
2022-11-14T07:56:34.341Z,6.40
2022-11-14T07:59:39.910Z,6.37
2022-11-14T08:02:46.984Z,6.42
2022-11-14T08:05:52.477Z,6.53
2022-11-14T08:08:58.092Z,6.57
2022-11-14T08:12:04.023Z,6.61
2022-11-14T08:15:11.775Z,6.35
2022-11-14T08:18:18.972Z,6.21
2022-11-14T08:21:24.769Z,6.27
2022-11-14T08:24:30.501Z,6.39
2022-11-14T08:27:36.531Z,6.33
2022-11-14T08:30:42.094Z,6.38
2022-11-14T08:33:50.621Z,6.45
2022-11-14T08:36:57.447Z,6.50
2022-11-14T08:40:02.849Z,6.63
2022-11-14T08:43:12.129Z,6.61
2022-11-14T08:46:17.683Z,6.68
2022-11-14T08:49:24.783Z,6.62
2022-11-14T08:52:30.498Z,6.68
2022-11-14T08:55:36.205Z,6.83
2022-11-14T08:58:41.891Z,6.78
2022-11-14T09:01:47.773Z,6.86
2022-11-14T09:04:54.312Z,6.90
2022-11-14T09:08:00.228Z,6.94
2022-11-14T09:11:08.399Z,7.05
2022-11-14T09:14:15.601Z,7.04
2022-11-14T09:17:20.971Z,7.11
2022-11-14T09:20:33.250Z,7.15
2022-11-14T09:23:41.490Z,7.33
2022-11-14T09:26:55.042Z,7.38
2022-11-14T09:30:02.389Z,7.37
2022-11-14T09:33:11.725Z,7.40
2022-11-14T09:36:19.909Z,7.33
2022-11-14T09:39:25.564Z,7.29
2022-11-14T09:42:47.361Z,7.23
2022-11-14T09:45:54.736Z,7.41
2022-11-14T09:49:00.206Z,7.48
2022-11-14T09:52:17.223Z,7.62
2022-11-14T09:55:25.153Z,7.66
2022-11-14T09:58:31.976Z,7.67
2022-11-14T10:01:49.666Z,7.64
2022-11-14T10:05:10.167Z,7.67
2022-11-14T10:08:43.531Z,7.74
2022-11-14T10:11:53.906Z,7.84
2022-11-14T10:15:11.732Z,7.76
2022-11-14T10:18:35.069Z,7.74
2022-11-14T10:22:06.124Z,7.92
2022-11-14T10:25:23.954Z,8.12
2022-11-14T10:28:43.176Z,8.53
2022-11-14T10:32:02.820Z,8.68
2022-11-14T10:35:15.850Z,8.74
2022-11-14T10:38:27.630Z,8.83
2022-11-14T10:41:55.959Z,8.91
2022-11-14T10:45:06.734Z,9.03
2022-11-14T10:48:18.272Z,8.79
2022-11-14T10:51:30.569Z,8.55
2022-11-14T10:54:43.031Z,8.52
2022-11-14T10:57:49.739Z,8.42
2022-11-14T11:00:55.070Z,8.43
2022-11-14T11:04:14.066Z,8.44
2022-11-14T11:07:41.605Z,8.47
2022-11-14T11:11:06.184Z,8.48
2022-11-14T11:14:19.046Z,8.62
2022-11-14T11:17:29.480Z,8.65
2022-11-14T11:20:39.028Z,8.65
2022-11-14T11:23:51.566Z,8.75
2022-11-14T11:27:14.535Z,8.76
2022-11-14T11:30:24.553Z,8.87
2022-11-14T11:33:31.909Z,8.95
2022-11-14T11:36:41.931Z,8.94
2022-11-14T11:39:51.033Z,8.98
2022-11-14T11:43:37.777Z,9.05
2022-11-14T11:46:36.674Z,9.05
2022-11-14T11:49:53.010Z,9.01
2022-11-14T11:53:13.763Z,9.01
2022-11-14T11:56:25.944Z,9.15
2022-11-14T11:59:38.935Z,9.15
2022-11-14T12:02:50.112Z,9.23
2022-11-14T12:06:05.381Z,8.78
2022-11-14T12:09:19.062Z,9.33
2022-11-14T12:12:39.614Z,9.44
2022-11-14T12:15:53.070Z,9.47
2022-11-14T12:19:16.850Z,9.52
2022-11-14T12:23:01.695Z,9.50
2022-11-14T12:26:21.571Z,9.53
2022-11-14T12:29:48.435Z,9.55
2022-11-14T12:32:59.290Z,9.56
2022-11-14T12:36:11.635Z,9.66
2022-11-14T12:39:26.329Z,9.67
2022-11-14T12:42:33.442Z,9.65
2022-11-14T12:45:59.946Z,9.65
2022-11-14T12:49:42.631Z,9.71
2022-11-14T12:52:51.448Z,9.71
2022-11-14T12:56:08.975Z,9.70
2022-11-14T12:59:39.039Z,9.77
2022-11-14T13:03:21.347Z,9.83
2022-11-14T13:06:34.553Z,9.75
2022-11-14T13:10:05.118Z,9.86
2022-11-14T13:13:30.444Z,9.67
2022-11-14T13:16:53.234Z,9.85
2022-11-14T13:20:16.649Z,9.74
2022-11-14T13:23:59.525Z,9.78
2022-11-14T13:27:45.592Z,9.69
2022-11-14T13:31:07.743Z,9.84
2022-11-14T13:34:47.276Z,9.73
2022-11-14T13:38:13.982Z,9.77
2022-11-14T13:41:52.200Z,9.75
2022-11-14T13:45:32.956Z,9.69
2022-11-14T13:48:53.120Z,9.71
2022-11-14T13:51:58.858Z,9.68
2022-11-14T13:55:05.495Z,9.59
2022-11-14T13:58:25.340Z,9.61
2022-11-14T14:01:50.221Z,9.48
2022-11-14T14:05:05.287Z,9.38
2022-11-14T14:08:20.887Z,9.43
2022-11-14T14:11:43.472Z,9.38
2022-11-14T14:15:08.139Z,9.23
2022-11-14T14:18:26.644Z,9.05
2022-11-14T14:21:45.342Z,9.08
2022-11-14T14:25:00.697Z,8.66
2022-11-14T14:28:15.785Z,8.90
2022-11-14T14:31:23.489Z,8.86
2022-11-14T14:34:32.693Z,8.82
2022-11-14T14:37:38.292Z,8.84
2022-11-14T14:40:44.230Z,8.64
2022-11-14T14:43:56.224Z,8.39
2022-11-14T14:47:44.862Z,8.25
2022-11-14T14:50:53.756Z,8.10
2022-11-14T14:53:59.217Z,8.00
2022-11-14T14:57:07.000Z,7.87
2022-11-14T15:00:24.250Z,7.75
2022-11-14T15:03:36.992Z,7.67
2022-11-14T15:06:50.716Z,7.52
2022-11-14T15:09:59.081Z,7.39
2022-11-14T15:13:05.936Z,7.19
2022-11-14T15:16:12.663Z,7.08
2022-11-14T15:19:21.545Z,7.00
2022-11-14T15:22:30.367Z,6.87
2022-11-14T15:25:36.133Z,6.72
2022-11-14T15:28:42.164Z,6.62
2022-11-14T15:31:50.243Z,6.52
2022-11-14T15:35:09.648Z,6.44
2022-11-14T15:41:50.827Z,6.24
2022-11-14T15:44:57.288Z,6.19
2022-11-14T15:48:17.122Z,6.09
2022-11-14T15:51:45.382Z,6.01
2022-11-14T15:54:58.309Z,5.90
2022-11-14T15:58:27.211Z,5.84
2022-11-14T16:01:30.969Z,5.83
2022-11-14T16:04:44.441Z,5.56
2022-11-14T16:07:53.380Z,5.73
2022-11-14T16:11:00.135Z,5.70
2022-11-14T16:14:06.503Z,5.78
2022-11-14T16:17:15.094Z,5.61
2022-11-14T16:20:22.664Z,5.52
2022-11-14T16:23:28.253Z,5.41
2022-11-14T16:26:36.132Z,5.31
2022-11-14T16:29:41.954Z,5.25
2022-11-14T16:32:49.988Z,5.20
2022-11-14T16:35:55.527Z,5.14
2022-11-14T16:39:03.258Z,5.04
2022-11-14T16:42:12.200Z,4.89
2022-11-14T16:45:32.746Z,4.91
2022-11-14T16:48:42.228Z,4.96
2022-11-14T16:51:51.289Z,4.58
2022-11-14T16:54:57.157Z,4.70
2022-11-14T16:58:03.961Z,4.69
2022-11-14T17:01:20.113Z,4.59
2022-11-14T17:04:27.806Z,4.61
2022-11-14T17:07:33.814Z,4.46
2022-11-14T17:10:41.646Z,4.44
2022-11-14T17:13:48.802Z,4.42
2022-11-14T17:16:55.945Z,4.50
2022-11-14T17:20:02.643Z,4.45
2022-11-14T17:23:08.317Z,4.40
2022-11-14T17:26:14.978Z,4.40
2022-11-14T17:29:22.016Z,4.33
2022-11-14T17:32:27.644Z,4.16
2022-11-14T17:35:35.739Z,4.10
2022-11-14T17:38:41.314Z,4.08
2022-11-14T17:41:46.578Z,4.09
2022-11-14T17:44:54.391Z,4.14
2022-11-14T17:47:59.576Z,4.11
2022-11-14T17:51:06.428Z,4.09
2022-11-14T17:54:12.025Z,4.09
2022-11-14T17:57:17.686Z,4.11
2022-11-14T18:00:24.631Z,4.12
2022-11-14T18:03:30.441Z,4.10
2022-11-14T18:06:35.811Z,4.09
2022-11-14T18:09:41.577Z,4.01
2022-11-14T18:12:47.326Z,4.10
2022-11-14T18:15:54.007Z,4.11
2022-11-14T18:18:59.333Z,4.22
2022-11-14T18:22:05.218Z,4.28
2022-11-14T18:25:10.848Z,4.30
2022-11-14T18:28:16.737Z,4.37
2022-11-14T18:31:24.087Z,4.43
2022-11-14T18:34:29.653Z,4.38
2022-11-14T18:37:35.155Z,4.41
2022-11-14T18:40:45.029Z,4.15
2022-11-14T18:43:50.540Z,4.25
2022-11-14T18:47:00.004Z,4.35
2022-11-14T18:50:06.055Z,4.38
2022-11-14T18:53:11.411Z,4.42
2022-11-14T18:56:19.184Z,4.49
2022-11-14T18:59:24.168Z,4.53
2022-11-14T19:02:30.819Z,4.62
2022-11-14T19:05:36.875Z,4.39
2022-11-14T19:08:42.950Z,4.55
2022-11-14T19:12:06.000Z,4.44
2022-11-14T19:15:12.320Z,4.53
2022-11-14T19:18:19.516Z,4.60
2022-11-14T19:21:25.796Z,4.56
2022-11-14T19:24:31.239Z,4.65
2022-11-14T19:27:36.858Z,4.61
2022-11-14T19:30:42.529Z,4.45
2022-11-14T19:33:49.625Z,4.23
2022-11-14T19:37:00.638Z,4.17
2022-11-14T19:40:07.936Z,4.20
2022-11-14T19:43:13.449Z,4.20
2022-11-14T19:46:18.979Z,4.09
2022-11-14T19:49:25.769Z,4.15
2022-11-14T19:52:31.216Z,4.01
2022-11-14T19:55:37.215Z,3.88
2022-11-14T19:58:44.783Z,3.77
2022-11-14T20:01:55.410Z,3.71
2022-11-14T20:05:02.342Z,3.68
2022-11-14T20:08:09.999Z,3.66
2022-11-14T20:11:15.413Z,3.66
2022-11-14T20:14:20.748Z,3.70
2022-11-14T20:17:26.311Z,3.69
2022-11-14T20:20:35.065Z,3.69
2022-11-14T20:23:40.627Z,3.82
2022-11-14T20:26:46.318Z,3.72
2022-11-14T20:29:51.923Z,3.60
2022-11-14T20:32:56.947Z,3.55
2022-11-14T20:36:05.690Z,3.50
2022-11-14T20:39:11.115Z,3.50
2022-11-14T20:42:16.323Z,3.56
2022-11-14T20:45:22.232Z,3.57
2022-11-14T20:48:29.168Z,3.58
2022-11-14T20:51:36.762Z,3.53
2022-11-14T20:54:42.132Z,3.47
2022-11-14T20:57:47.641Z,3.53
2022-11-14T21:00:54.002Z,3.63
2022-11-14T21:03:59.292Z,3.47
2022-11-14T21:07:06.344Z,3.37
2022-11-14T21:10:30.845Z,3.29
2022-11-14T21:13:55.247Z,3.26
2022-11-14T21:17:01.585Z,3.20
2022-11-14T21:20:08.512Z,3.18
2022-11-14T21:23:15.256Z,3.13
2022-11-14T21:26:23.412Z,3.12
2022-11-14T21:29:28.578Z,3.08
2022-11-14T21:32:36.378Z,3.18
2022-11-14T21:35:42.046Z,3.15
2022-11-14T21:38:49.595Z,3.20
2022-11-14T21:41:55.413Z,3.10
2022-11-14T21:45:01.992Z,3.10
2022-11-14T21:48:07.689Z,3.05
2022-11-14T21:51:14.804Z,2.99
2022-11-14T21:54:21.802Z,2.97
2022-11-14T21:57:27.702Z,3.02
2022-11-14T22:00:33.200Z,2.94
2022-11-14T22:03:56.555Z,2.92
2022-11-14T22:07:03.772Z,2.94
2022-11-14T22:10:11.257Z,2.86
2022-11-14T22:13:17.179Z,2.82
2022-11-14T22:16:22.817Z,2.80
2022-11-14T22:19:28.110Z,2.81
2022-11-14T22:22:34.166Z,2.79
2022-11-14T22:25:41.136Z,2.78
2022-11-14T22:28:47.196Z,2.76
2022-11-14T22:31:55.544Z,2.69
2022-11-14T22:35:00.746Z,2.67
2022-11-14T22:38:05.970Z,2.72
2022-11-14T22:41:15.903Z,2.72
2022-11-14T22:44:21.521Z,2.67
2022-11-14T22:47:27.396Z,2.61
2022-11-14T22:50:33.413Z,2.60
2022-11-14T22:53:39.788Z,2.62
2022-11-14T22:56:46.867Z,2.59
2022-11-14T22:59:52.720Z,2.54
2022-11-14T23:02:58.167Z,2.55
2022-11-14T23:06:07.863Z,2.54
2022-11-14T23:09:13.365Z,2.59
2022-11-14T23:12:20.460Z,2.61
2022-11-14T23:15:26.939Z,2.56
2022-11-14T23:18:32.623Z,2.52
2022-11-14T23:21:38.500Z,2.50
2022-11-14T23:24:43.922Z,2.52
2022-11-14T23:27:51.053Z,2.46
2022-11-14T23:30:56.988Z,2.48
2022-11-14T23:34:02.772Z,2.51
2022-11-14T23:37:08.376Z,2.52
2022-11-14T23:40:14.315Z,2.53
2022-11-14T23:43:21.231Z,2.43
2022-11-14T23:46:26.823Z,2.52
2022-11-14T23:49:32.571Z,2.41
2022-11-14T23:52:38.356Z,2.37
2022-11-14T23:55:43.941Z,2.33
2022-11-14T23:58:50.517Z,2.32
